Time;durP1;ratioP1;P1;durP2;ratioP2;P2;SDS_P1;SDS_P2;PMS_P1;PMS_P2;Temp;Humidity;BMP_temperature;BMP_pressure;BME280_temperature;BME280_humidity;BME280_pressure;Samples;Min_cycle;Max_cycle;Signal;HPM_P1;HPM_P2
2021/08/21 00:01:04;;;;;;;8.10;5.83;;;18.90;84.70;;;;;;5036805;28;20974;-75
2021/08/21 00:03:29;;;;;;;8.60;5.90;;;18.90;84.70;;;;;;5042352;28;20433;-74
2021/08/21 00:05:55;;;;;;;13.53;7.17;;;18.90;84.40;;;;;;5046549;28;20943;-74
2021/08/21 00:08:21;;;;;;;8.87;5.97;;;18.90;84.60;;;;;;5048255;28;20184;-74
2021/08/21 00:10:47;;;;;;;12.10;6.87;;;18.90;84.70;;;;;;5038320;28;20206;-74
2021/08/21 00:13:12;;;;;;;7.60;5.90;;;18.90;84.90;;;;;;5044161;28;20277;-74
2021/08/21 00:15:38;;;;;;;10.30;7.17;;;19.00;84.10;;;;;;5037832;28;20437;-75
2021/08/21 00:18:04;;;;;;;9.50;6.13;;;19.00;84.40;;;;;;5042099;28;20200;-73
2021/08/21 00:20:30;;;;;;;8.80;6.33;;;18.90;84.10;;;;;;5040400;28;20212;-74
2021/08/21 00:22:56;;;;;;;11.17;6.43;;;18.90;84.10;;;;;;5045332;28;20197;-74
2021/08/21 00:25:21;;;;;;;10.70;6.80;;;19.00;83.80;;;;;;5038592;28;20506;-74
2021/08/21 00:27:47;;;;;;;8.17;6.53;;;19.00;84.10;;;;;;5041740;28;20192;-73
2021/08/21 00:30:14;;;;;;;10.80;6.60;;;19.00;84.30;;;;;;5043133;28;20195;-74
2021/08/21 00:32:40;;;;;;;9.93;6.17;;;19.00;84.30;;;;;;5041921;28;20197;-75
2021/08/21 00:35:07;;;;;;;13.53;6.10;;;18.90;84.40;;;;;;5039919;28;20454;-76
2021/08/21 00:37:33;;;;;;;9.17;6.37;;;18.90;84.90;;;;;;5042445;28;20458;-76
2021/08/21 00:39:59;;;;;;;7.70;5.87;;;18.90;85.00;;;;;;5040767;28;20508;-75
2021/08/21 00:42:25;;;;;;;10.10;6.37;;;19.00;84.60;;;;;;5043443;28;20535;-74
2021/08/21 00:44:50;;;;;;;12.20;6.60;;;19.00;84.30;;;;;;5032650;28;20363;-75
2021/08/21 00:47:20;;;;;;;11.40;6.80;;;19.00;84.10;;;;;;5039974;28;20196;-74
2021/08/21 00:49:52;;;;;;;10.43;6.20;;;18.90;84.60;;;;;;5034136;28;20272;-75
2021/08/21 00:52:22;;;;;;;7.47;5.57;;;18.90;84.90;;;;;;5035133;28;20445;-74
2021/08/21 00:54:51;;;;;;;8.23;5.83;;;18.90;84.90;;;;;;5041487;28;20435;-75
2021/08/21 00:57:18;;;;;;;7.27;5.00;;;18.80;85.00;;;;;;5051204;28;20519;-76
2021/08/21 00:59:47;;;;;;;11.57;5.90;;;18.60;85.60;;;;;;5049234;28;20470;-74
2021/08/21 01:02:14;;;;;;;10.03;6.40;;;18.60;85.90;;;;;;5044103;28;20444;-75
2021/08/21 01:04:43;;;;;;;13.70;6.13;;;18.50;85.90;;;;;;5048406;28;20456;-75
2021/08/21 01:07:18;;;;;;;11.10;6.40;;;18.50;86.00;;;;;;5049634;28;20477;-74
2021/08/21 01:09:45;;;;;;;8.57;5.73;;;18.60;85.90;;;;;;5044817;28;20427;-74
2021/08/21 01:12:12;;;;;;;10.00;7.10;;;18.50;86.20;;;;;;5049678;28;20489;-74
2021/08/21 01:14:38;;;;;;;9.60;6.13;;;18.50;86.30;;;;;;5050133;28;20439;-74
2021/08/21 01:17:05;;;;;;;9.53;5.87;;;18.40;86.80;;;;;;5051222;28;20438;-75
2021/08/21 01:19:46;;;;;;;11.70;6.10;;;18.40;87.00;;;;;;5066381;28;20462;-76
2021/08/21 01:22:20;;;;;;;12.63;6.67;;;18.30;87.30;;;;;;5067644;28;20466;-74
2021/08/21 01:24:49;;;;;;;9.27;6.47;;;18.30;87.30;;;;;;5059895;28;20768;-76
2021/08/21 01:27:17;;;;;;;9.37;6.80;;;18.20;87.60;;;;;;5050654;28;20429;-76
2021/08/21 01:29:44;;;;;;;9.60;6.00;;;18.20;87.10;;;;;;5046914;28;20522;-75
2021/08/21 01:32:09;;;;;;;12.30;7.13;;;18.30;87.00;;;;;;5038919;28;20494;-75
2021/08/21 01:34:35;;;;;;;11.37;7.23;;;18.20;87.00;;;;;;5044179;28;20439;-76
2021/08/21 01:37:01;;;;;;;11.90;7.47;;;18.10;87.40;;;;;;5038835;28;20229;-75
2021/08/21 01:39:27;;;;;;;10.57;6.80;;;18.20;87.30;;;;;;5044261;28;20269;-75
2021/08/21 01:41:52;;;;;;;12.30;6.93;;;18.10;87.40;;;;;;5036667;28;20215;-75
2021/08/21 01:44:18;;;;;;;10.50;6.73;;;18.20;87.30;;;;;;5044518;28;20261;-75
2021/08/21 01:46:48;;;;;;;11.13;7.17;;;18.30;87.10;;;;;;5045777;28;20213;-76
2021/08/21 01:49:19;;;;;;;10.83;6.60;;;18.20;87.60;;;;;;5051834;28;20439;-75
2021/08/21 01:51:47;;;;;;;12.63;7.67;;;18.20;87.70;;;;;;5048942;28;20465;-75
2021/08/21 01:54:15;;;;;;;12.80;7.33;;;18.30;87.10;;;;;;5049701;28;20485;-75
2021/08/21 01:56:49;;;;;;;12.37;7.50;;;18.20;87.30;;;;;;5047673;28;20434;-76
2021/08/21 01:59:39;;;;;;;8.70;6.07;;;18.20;87.70;;;;;;5042356;28;20475;-75
2021/08/21 02:02:09;;;;;;;9.37;5.70;;;18.10;88.10;;;;;;5054956;28;20454;-76
2021/08/21 02:04:35;;;;;;;11.37;6.30;;;18.10;88.40;;;;;;5045610;28;20425;-75
2021/08/21 02:07:01;;;;;;;9.70;5.30;;;18.10;88.40;;;;;;5052299;28;20493;-75
2021/08/21 02:09:28;;;;;;;7.93;5.60;;;18.10;88.40;;;;;;5048507;28;20193;-75
2021/08/21 02:11:55;;;;;;;9.40;5.60;;;18.10;88.40;;;;;;5043935;28;20457;-75
2021/08/21 02:14:23;;;;;;;9.00;5.73;;;18.00;88.60;;;;;;5052102;28;20585;-76
2021/08/21 02:16:54;;;;;;;9.30;6.20;;;18.00;88.70;;;;;;5052753;28;20429;-76
2021/08/21 02:19:20;;;;;;;11.40;6.90;;;18.00;88.90;;;;;;5046367;28;20577;-77
2021/08/21 02:21:47;;;;;;;9.03;6.53;;;17.90;88.70;;;;;;5051130;28;20971;-74
2021/08/21 02:24:15;;;;;;;10.40;5.77;;;17.90;88.70;;;;;;5051281;28;20510;-76
2021/08/21 02:26:42;;;;;;;13.70;6.67;;;17.90;88.70;;;;;;5052407;28;20795;-75
2021/08/21 02:29:09;;;;;;;8.40;6.13;;;17.80;89.00;;;;;;5051229;28;20433;-75
2021/08/21 02:31:35;;;;;;;9.20;6.00;;;17.70;89.30;;;;;;5047569;28;20445;-76
2021/08/21 02:34:02;;;;;;;8.80;6.33;;;17.70;89.50;;;;;;5052518;28;20521;-76
2021/08/21 02:36:27;;;;;;;8.93;5.10;;;17.60;89.60;;;;;;5052553;28;20826;-77
2021/08/21 02:38:53;;;;;;;12.00;6.13;;;17.60;89.90;;;;;;5049071;28;20469;-75
2021/08/21 02:41:19;;;;;;;8.30;5.70;;;17.60;90.00;;;;;;5045233;28;20202;-74
2021/08/21 02:43:45;;;;;;;8.80;5.57;;;17.50;90.00;;;;;;5046967;28;20192;-76
2021/08/21 02:46:10;;;;;;;11.53;6.20;;;17.40;90.10;;;;;;5048675;28;20188;-76
2021/08/21 02:48:36;;;;;;;9.90;5.67;;;17.30;90.20;;;;;;5044675;28;20215;-78
2021/08/21 02:51:02;;;;;;;8.07;6.27;;;17.30;90.40;;;;;;5050951;28;20262;-75
2021/08/21 02:53:28;;;;;;;9.23;5.90;;;17.20;90.50;;;;;;5052286;28;20231;-75
2021/08/21 02:55:54;;;;;;;8.67;5.80;;;17.20;90.80;;;;;;5048987;28;20254;-75
2021/08/21 02:58:19;;;;;;;14.10;6.50;;;17.10;90.90;;;;;;5042152;28;20189;-76
2021/08/21 03:00:46;;;;;;;8.50;6.37;;;17.10;91.00;;;;;;5051836;28;20478;-76
2021/08/21 03:03:12;;;;;;;11.63;6.50;;;17.00;91.10;;;;;;5051237;28;20191;-76
2021/08/21 03:05:39;;;;;;;8.30;5.77;;;17.00;91.10;;;;;;5048585;28;20513;-77
2021/08/21 03:08:05;;;;;;;11.57;7.20;;;17.00;91.00;;;;;;5050078;28;20449;-76
2021/08/21 03:10:31;;;;;;;8.03;5.87;;;16.90;91.10;;;;;;5051535;28;20435;-75
2021/08/21 03:12:57;;;;;;;9.80;6.00;;;16.90;91.20;;;;;;5059111;28;20438;-74
2021/08/21 03:15:29;;;;;;;8.30;5.83;;;16.90;91.30;;;;;;5053555;28;20459;-75
2021/08/21 03:17:58;;;;;;;9.80;6.60;;;16.80;91.50;;;;;;5063736;28;20197;-76
2021/08/21 03:20:25;;;;;;;12.57;6.43;;;16.80;91.60;;;;;;5055168;28;20477;-74
2021/08/21 03:22:52;;;;;;;13.27;7.83;;;16.80;91.60;;;;;;5056410;28;20434;-75
2021/08/21 03:25:18;;;;;;;12.27;7.73;;;16.80;91.70;;;;;;5065769;28;20442;-74
2021/08/21 03:27:43;;;;;;;10.43;6.87;;;16.70;91.90;;;;;;5070421;28;20459;-76
2021/08/21 03:30:09;;;;;;;14.10;7.03;;;16.70;92.40;;;;;;5068525;28;20427;-75
2021/08/21 03:32:35;;;;;;;14.43;6.93;;;16.70;92.50;;;;;;5052911;28;20204;-75
2021/08/21 03:35:02;;;;;;;9.87;6.73;;;16.70;92.70;;;;;;5048983;28;20540;-76
2021/08/21 03:37:29;;;;;;;10.03;6.40;;;16.70;92.80;;;;;;5051620;28;20176;-76
2021/08/21 03:39:55;;;;;;;9.33;6.27;;;16.70;92.60;;;;;;5038725;28;20834;-76
2021/08/21 03:42:21;;;;;;;8.43;6.00;;;16.70;92.50;;;;;;5050773;28;20441;-75
2021/08/21 03:44:47;;;;;;;9.60;6.40;;;16.60;92.40;;;;;;5051442;28;20820;-75
2021/08/21 03:47:13;;;;;;;11.30;6.50;;;16.60;92.40;;;;;;5047453;28;20415;-75
2021/08/21 03:49:39;;;;;;;11.20;7.30;;;16.60;92.30;;;;;;5044653;28;20260;-75
2021/08/21 03:52:05;;;;;;;8.80;6.57;;;16.60;92.30;;;;;;5045995;28;20646;-76
2021/08/21 03:54:30;;;;;;;8.80;6.20;;;16.60;92.40;;;;;;5048360;28;20208;-75
2021/08/21 03:56:56;;;;;;;10.23;6.97;;;16.50;92.40;;;;;;5044908;28;20836;-76
2021/08/21 03:59:22;;;;;;;11.27;7.00;;;16.50;92.80;;;;;;5041051;28;20204;-75
2021/08/21 04:01:48;;;;;;;9.83;7.53;;;16.40;93.10;;;;;;5047939;28;20556;-76
2021/08/21 04:04:13;;;;;;;11.90;7.43;;;16.40;93.40;;;;;;5046922;28;20177;-75
2021/08/21 04:06:40;;;;;;;9.33;6.37;;;16.30;93.60;;;;;;5041206;28;20419;-75
2021/08/21 04:09:07;;;;;;;12.27;7.10;;;16.20;94.00;;;;;;5055328;28;20269;-76
2021/08/21 04:11:32;;;;;;;11.50;7.70;;;16.20;94.00;;;;;;5049640;28;20473;-74
2021/08/21 04:13:58;;;;;;;12.83;7.80;;;16.10;94.10;;;;;;5050353;28;20423;-76
2021/08/21 04:16:24;;;;;;;16.07;8.17;;;16.10;94.30;;;;;;5058378;28;20184;-75
2021/08/21 04:18:50;;;;;;;12.93;7.37;;;16.10;94.40;;;;;;5055428;28;20207;-74
2021/08/21 04:21:16;;;;;;;11.47;7.00;;;16.10;94.10;;;;;;5048976;28;20211;-75
2021/08/21 04:23:41;;;;;;;13.13;7.30;;;16.10;94.30;;;;;;5048268;28;20202;-76
2021/08/21 04:26:07;;;;;;;13.07;7.30;;;16.20;94.20;;;;;;5053956;28;20185;-78
2021/08/21 04:28:34;;;;;;;13.40;8.30;;;16.10;94.10;;;;;;5044915;28;20179;-75
2021/08/21 04:31:00;;;;;;;9.90;7.33;;;16.10;94.30;;;;;;5045186;28;20204;-74
2021/08/21 04:33:26;;;;;;;11.83;7.53;;;16.10;94.30;;;;;;5047230;28;20954;-76
2021/08/21 04:35:52;;;;;;;11.93;7.80;;;16.10;94.40;;;;;;5044148;28;20456;-75
2021/08/21 04:38:19;;;;;;;18.13;10.20;;;16.10;94.50;;;;;;5049124;28;20434;-75
2021/08/21 04:40:46;;;;;;;12.73;7.63;;;16.10;94.60;;;;;;5040461;28;20482;-76
2021/08/21 04:43:14;;;;;;;10.07;6.83;;;16.20;94.40;;;;;;5040181;28;20427;-75
2021/08/21 04:45:40;;;;;;;22.27;7.20;;;16.20;94.10;;;;;;5040592;28;20454;-74
2021/08/21 04:48:06;;;;;;;8.63;6.53;;;16.30;93.80;;;;;;5040982;28;20933;-75
2021/08/21 04:50:31;;;;;;;9.37;6.63;;;16.30;93.70;;;;;;5041590;28;20431;-75
2021/08/21 04:52:57;;;;;;;13.23;7.37;;;16.40;93.40;;;;;;5041021;28;20227;-75
2021/08/21 04:55:23;;;;;;;10.73;6.93;;;16.30;93.50;;;;;;5044067;28;20199;-76
2021/08/21 04:57:50;;;;;;;11.77;7.37;;;16.30;93.70;;;;;;5032527;28;20721;-75
2021/08/21 05:00:16;;;;;;;11.17;7.37;;;16.20;93.70;;;;;;5048663;28;20576;-76
2021/08/21 05:02:42;;;;;;;12.90;7.00;;;16.30;93.90;;;;;;5048996;28;20533;-76
2021/08/21 05:05:08;;;;;;;13.93;7.47;;;16.30;93.80;;;;;;5050360;28;20524;-75
2021/08/21 05:07:33;;;;;;;14.20;8.13;;;16.30;93.70;;;;;;5042248;28;20604;-76
2021/08/21 05:09:59;;;;;;;11.87;7.97;;;16.30;93.70;;;;;;5050499;28;20585;-75
2021/08/21 05:12:25;;;;;;;12.57;8.20;;;16.40;93.50;;;;;;5047435;28;20208;-75
2021/08/21 05:14:51;;;;;;;12.93;7.80;;;16.40;93.50;;;;;;5050962;28;20231;-77
2021/08/21 05:17:16;;;;;;;12.10;7.73;;;16.50;93.20;;;;;;5051154;28;20681;-75
2021/08/21 05:19:53;;;;;;;11.03;7.43;;;16.50;93.10;;;;;;5049302;28;20203;-75
2021/08/21 05:25:03;;;;;;;10.40;7.27;;;16.70;92.90;;;;;;5053208;28;20530;-75
2021/08/21 05:27:29;;;;;;;10.90;7.40;;;16.70;93.00;;;;;;5052807;28;20419;-75
2021/08/21 05:29:55;;;;;;;11.00;7.53;;;16.70;93.00;;;;;;5048311;28;20522;-75
2021/08/21 05:32:21;;;;;;;11.20;7.90;;;16.80;92.60;;;;;;5052287;28;20611;-76
2021/08/21 05:34:47;;;;;;;12.30;7.60;;;16.90;92.40;;;;;;5048912;28;20184;-75
2021/08/21 05:37:12;;;;;;;9.77;7.03;;;17.00;92.50;;;;;;5049247;28;20197;-74
2021/08/21 05:39:38;;;;;;;12.00;7.83;;;17.00;92.20;;;;;;5053507;28;20219;-77
2021/08/21 05:42:04;;;;;;;13.50;9.00;;;17.10;92.10;;;;;;5053023;28;20226;-74
2021/08/21 05:44:29;;;;;;;19.00;8.00;;;17.20;91.80;;;;;;5047865;28;20275;-75
2021/08/21 05:46:55;;;;;;;10.03;7.10;;;17.40;91.30;;;;;;5048373;28;20268;-76
2021/08/21 05:49:21;;;;;;;9.40;6.80;;;17.40;91.20;;;;;;5044380;28;20265;-76
2021/08/21 05:51:47;;;;;;;12.00;7.47;;;17.50;90.80;;;;;;5049657;28;20215;-76
2021/08/21 05:54:12;;;;;;;10.83;7.70;;;17.70;90.30;;;;;;5042005;28;20188;-75
2021/08/21 05:56:38;;;;;;;11.60;8.00;;;17.70;90.20;;;;;;5047313;28;20554;-76
2021/08/21 05:59:04;;;;;;;11.43;7.80;;;17.80;90.10;;;;;;5046971;28;20243;-76
2021/08/21 06:01:29;;;;;;;15.30;8.43;;;17.90;89.00;;;;;;5054448;28;20203;-75
2021/08/21 06:03:56;;;;;;;11.50;8.33;;;18.00;88.60;;;;;;5053281;28;20632;-75
2021/08/21 06:06:24;;;;;;;16.90;9.00;;;18.10;88.00;;;;;;5051594;28;20200;-76
2021/08/21 06:08:50;;;;;;;12.97;7.83;;;18.10;87.40;;;;;;5053715;28;20426;-75
2021/08/21 06:11:15;;;;;;;9.80;7.60;;;18.10;87.70;;;;;;5044850;28;20450;-76
2021/08/21 06:13:41;;;;;;;10.57;7.53;;;18.20;87.60;;;;;;5050153;28;20427;-75
2021/08/21 06:16:07;;;;;;;15.60;8.47;;;18.30;87.30;;;;;;5049274;28;20232;-75
2021/08/21 06:18:33;;;;;;;14.43;8.70;;;18.40;86.80;;;;;;5054125;28;20226;-74
2021/08/21 06:20:59;;;;;;;10.47;7.80;;;18.40;86.50;;;;;;5049589;28;20205;-74
2021/08/21 06:23:25;;;;;;;12.77;7.67;;;18.40;86.60;;;;;;5057331;28;20440;-76
2021/08/21 06:25:50;;;;;;;15.57;8.20;;;18.50;86.30;;;;;;5062881;28;20185;-76
2021/08/21 06:28:17;;;;;;;14.27;7.50;;;18.50;86.50;;;;;;5050298;28;20186;-75
2021/08/21 06:30:43;;;;;;;10.10;6.90;;;18.50;86.50;;;;;;5049073;28;20688;-74
2021/08/21 06:33:08;;;;;;;12.53;7.60;;;18.50;86.60;;;;;;5053909;28;20441;-75
2021/08/21 06:35:34;;;;;;;10.20;7.53;;;18.60;86.90;;;;;;5047421;28;20208;-76
2021/08/21 06:38:00;;;;;;;13.80;7.27;;;18.70;86.50;;;;;;5053079;28;20200;-73
2021/08/21 06:40:26;;;;;;;13.50;7.70;;;18.70;86.50;;;;;;5052731;28;20480;-74
2021/08/21 06:42:53;;;;;;;16.03;9.03;;;18.70;86.30;;;;;;5050039;28;20204;-75
2021/08/21 06:45:19;;;;;;;14.77;9.10;;;18.70;86.00;;;;;;5052306;28;20892;-74
2021/08/21 06:47:44;;;;;;;12.27;8.30;;;18.70;86.20;;;;;;5044736;28;20841;-75
2021/08/21 06:50:10;;;;;;;16.57;8.70;;;18.80;85.60;;;;;;5047996;28;20250;-75
2021/08/21 06:52:36;;;;;;;11.27;8.03;;;18.90;85.70;;;;;;5043680;28;20201;-76
2021/08/21 06:55:03;;;;;;;11.20;7.53;;;18.90;86.00;;;;;;5047243;28;20821;-76
2021/08/21 06:57:29;;;;;;;16.13;8.70;;;19.00;86.20;;;;;;5040776;28;20474;-75
2021/08/21 06:59:57;;;;;;;11.00;7.70;;;19.00;86.00;;;;;;5046899;28;20513;-76
2021/08/21 07:02:26;;;;;;;10.93;8.20;;;19.00;86.20;;;;;;5046609;28;20447;-75
2021/08/21 07:04:51;;;;;;;11.83;7.90;;;19.10;86.20;;;;;;5052582;28;20431;-75
2021/08/21 07:07:17;;;;;;;15.10;8.10;;;19.10;85.90;;;;;;5050497;28;20428;-75
2021/08/21 07:09:43;;;;;;;14.27;8.37;;;19.10;85.60;;;;;;5051776;28;20199;-75
2021/08/21 07:12:08;;;;;;;12.27;7.83;;;19.20;85.70;;;;;;5048884;28;20214;-75
2021/08/21 07:14:34;;;;;;;17.70;8.90;;;19.30;85.30;;;;;;5045594;28;20185;-74
2021/08/21 07:17:00;;;;;;;13.07;8.40;;;19.40;85.00;;;;;;5046027;28;20334;-74
2021/08/21 07:19:26;;;;;;;21.07;8.60;;;19.40;85.00;;;;;;5043508;28;20634;-76
2021/08/21 07:21:53;;;;;;;12.00;7.90;;;19.30;85.20;;;;;;5034628;28;20209;-76
2021/08/21 07:24:22;;;;;;;12.87;7.97;;;19.30;85.50;;;;;;5048862;28;20199;-75
2021/08/21 07:26:48;;;;;;;13.67;8.60;;;19.30;85.60;;;;;;5041681;28;20558;-75
2021/08/21 07:29:15;;;;;;;10.43;7.33;;;19.30;85.30;;;;;;5047313;28;20513;-74
2021/08/21 07:31:40;;;;;;;11.60;7.60;;;19.30;85.30;;;;;;5045412;28;20444;-76
2021/08/21 07:34:06;;;;;;;12.40;8.07;;;19.40;85.30;;;;;;5050232;28;20451;-76
2021/08/21 07:36:32;;;;;;;11.73;7.87;;;19.40;85.20;;;;;;5049794;28;20729;-76
2021/08/21 07:38:58;;;;;;;13.30;8.07;;;19.40;85.20;;;;;;5046759;28;20219;-75
2021/08/21 07:41:23;;;;;;;15.50;7.90;;;19.50;85.20;;;;;;5042576;28;20210;-75
2021/08/21 07:43:49;;;;;;;12.27;8.33;;;19.70;84.40;;;;;;5050561;28;20191;-75
2021/08/21 07:46:15;;;;;;;14.93;7.60;;;19.80;83.70;;;;;;5046927;28;20207;-74
2021/08/21 07:48:41;;;;;;;11.77;7.73;;;19.90;83.70;;;;;;5044214;28;20628;-76
2021/08/21 07:51:06;;;;;;;11.30;7.73;;;20.00;83.60;;;;;;5043557;28;20208;-74
2021/08/21 07:53:32;;;;;;;11.80;7.77;;;20.00;83.60;;;;;;5051109;28;20556;-76
2021/08/21 07:55:58;;;;;;;17.00;7.70;;;20.10;82.80;;;;;;5041456;28;20216;-76
2021/08/21 07:58:24;;;;;;;12.77;7.37;;;20.10;82.70;;;;;;5041510;28;20639;-75
2021/08/21 08:00:49;;;;;;;12.60;7.23;;;20.20;82.70;;;;;;5050116;28;20463;-76
2021/08/21 08:03:15;;;;;;;13.70;7.30;;;20.30;81.90;;;;;;5050621;28;20189;-74
2021/08/21 08:05:42;;;;;;;9.13;7.20;;;20.30;81.50;;;;;;5050504;28;20257;-74
2021/08/21 08:08:08;;;;;;;11.63;7.13;;;20.30;81.70;;;;;;5048681;28;20639;-75
2021/08/21 08:10:33;;;;;;;10.23;7.07;;;20.40;81.40;;;;;;5044882;28;20478;-74
2021/08/21 08:12:59;;;;;;;8.97;6.20;;;20.40;80.60;;;;;;5046035;28;20438;-76
2021/08/21 08:15:25;;;;;;;8.10;5.90;;;20.50;80.30;;;;;;5049262;28;20189;-75
2021/08/21 08:17:51;;;;;;;10.43;6.70;;;20.70;80.20;;;;;;5049233;28;20191;-76
2021/08/21 08:20:17;;;;;;;10.53;6.60;;;20.70;80.50;;;;;;5050035;28;20206;-76
2021/08/21 08:22:43;;;;;;;11.40;7.10;;;20.80;80.50;;;;;;5045661;28;20208;-76
2021/08/21 08:25:09;;;;;;;9.77;6.90;;;20.90;79.50;;;;;;5049263;28;20805;-74
2021/08/21 08:27:36;;;;;;;11.50;7.97;;;21.10;78.30;;;;;;5044107;28;20192;-77
2021/08/21 08:30:03;;;;;;;12.40;7.07;;;21.10;78.00;;;;;;5047616;28;21011;-75
2021/08/21 08:32:29;;;;;;;12.40;6.67;;;21.20;77.60;;;;;;5042257;28;20431;-75
2021/08/21 08:34:55;;;;;;;10.43;6.50;;;21.30;76.80;;;;;;5045791;28;20952;-75
2021/08/21 08:37:20;;;;;;;9.77;7.10;;;21.40;76.20;;;;;;5047728;28;20695;-75
2021/08/21 08:39:46;;;;;;;8.50;6.40;;;21.50;76.40;;;;;;5046372;28;20357;-76
2021/08/21 08:42:14;;;;;;;11.20;7.27;;;21.60;76.20;;;;;;5046151;28;20206;-74
2021/08/21 08:44:46;;;;;;;12.50;7.20;;;21.80;74.80;;;;;;5039104;28;20722;-75
2021/08/21 08:47:17;;;;;;;9.00;6.40;;;21.90;74.00;;;;;;5044797;28;20782;-76
2021/08/21 08:49:47;;;;;;;10.00;6.57;;;22.00;74.00;;;;;;5042667;28;20421;-76
2021/08/21 08:52:17;;;;;;;8.93;6.50;;;22.00;73.30;;;;;;5047680;28;20572;-77
2021/08/21 08:54:44;;;;;;;10.50;6.80;;;22.10;72.90;;;;;;5044002;28;20436;-80
2021/08/21 08:57:17;;;;;;;16.40;7.10;;;22.20;72.30;;;;;;5045284;28;20535;-78
2021/08/21 08:59:43;;;;;;;10.13;7.60;;;22.30;72.70;;;;;;5043203;28;20458;-78
2021/08/21 09:02:09;;;;;;;10.57;6.53;;;22.30;72.90;;;;;;5050014;28;20950;-78
2021/08/21 09:04:35;;;;;;;10.00;6.57;;;22.50;72.60;;;;;;5047733;28;20453;-79
2021/08/21 09:07:00;;;;;;;11.67;7.20;;;22.60;72.30;;;;;;5049256;28;20214;-81
2021/08/21 09:09:26;;;;;;;10.93;6.90;;;22.60;72.00;;;;;;5048520;28;20212;-79
2021/08/21 09:11:54;;;;;;;11.00;7.00;;;22.60;72.10;;;;;;5043892;28;20238;-79
2021/08/21 09:14:21;;;;;;;9.20;6.33;;;22.80;71.70;;;;;;5052536;28;20569;-79
2021/08/21 09:16:48;;;;;;;10.87;6.30;;;22.90;71.60;;;;;;5049035;28;20432;-80
2021/08/21 09:19:24;;;;;;;15.43;6.73;;;23.00;71.40;;;;;;5042425;28;20459;-79
2021/08/21 09:22:05;;;;;;;11.60;7.40;;;23.10;71.30;;;;;;5049578;28;20438;-80
2021/08/21 09:24:32;;;;;;;9.10;5.93;;;23.30;70.50;;;;;;5043807;28;20425;-79
2021/08/21 09:27:21;;;;;;;12.00;6.70;;;23.40;70.20;;;;;;5043089;28;20432;-78
2021/08/21 09:30:07;;;;;;;12.40;7.40;;;23.50;70.50;;;;;;5043498;28;20903;-78
2021/08/21 09:32:32;;;;;;;8.47;6.00;;;23.60;69.90;;;;;;5043160;28;20474;-78
2021/08/21 09:35:07;;;;;;;9.97;6.67;;;23.70;70.20;;;;;;5044839;28;20811;-78
2021/08/21 09:37:50;;;;;;;9.57;7.07;;;23.80;69.90;;;;;;5054760;28;20186;-77
2021/08/21 09:40:36;;;;;;;8.93;6.17;;;23.90;69.70;;;;;;5053796;28;20472;-79
2021/08/21 09:43:05;;;;;;;12.80;6.93;;;23.90;69.40;;;;;;5052369;28;20512;-78
2021/08/21 09:45:35;;;;;;;11.13;6.57;;;24.00;68.80;;;;;;5049467;28;20409;-77
2021/08/21 09:48:04;;;;;;;11.30;6.20;;;24.00;68.90;;;;;;5057947;28;20423;-80
2021/08/21 09:50:39;;;;;;;12.63;7.07;;;24.00;68.50;;;;;;5045785;28;20427;-80
2021/08/21 09:53:10;;;;;;;9.37;6.30;;;24.10;68.50;;;;;;5042084;28;20440;-79
2021/08/21 09:55:36;;;;;;;11.30;6.53;;;24.20;68.60;;;;;;5052110;28;20417;-79
2021/08/21 09:58:15;;;;;;;8.73;6.73;;;24.30;68.60;;;;;;5039881;28;21007;-77
2021/08/21 10:00:43;;;;;;;9.33;6.10;;;24.40;68.80;;;;;;5042374;28;20475;-77
2021/08/21 10:03:09;;;;;;;8.90;6.60;;;24.50;68.00;;;;;;5049093;28;20428;-78
2021/08/21 10:05:35;;;;;;;7.50;6.10;;;24.60;67.30;;;;;;5044624;28;20480;-78
2021/08/21 10:08:05;;;;;;;9.37;6.63;;;24.60;67.30;;;;;;5052022;28;20415;-76
2021/08/21 10:10:36;;;;;;;10.10;5.87;;;24.80;66.70;;;;;;5051325;28;20195;-79
2021/08/21 10:13:09;;;;;;;9.83;6.97;;;24.80;67.30;;;;;;5052742;28;20429;-77
2021/08/21 10:15:37;;;;;;;11.00;6.80;;;24.90;67.50;;;;;;5051617;28;20423;-77
2021/08/21 10:18:04;;;;;;;9.37;6.27;;;25.00;66.70;;;;;;5048566;28;20426;-75
2021/08/21 10:20:29;;;;;;;10.60;6.97;;;25.00;67.00;;;;;;5044444;28;20831;-77
2021/08/21 10:22:55;;;;;;;9.50;6.13;;;25.10;66.00;;;;;;5047098;28;20438;-77
2021/08/21 10:25:25;;;;;;;9.20;6.60;;;25.20;66.90;;;;;;5049620;28;20189;-76
2021/08/21 10:28:00;;;;;;;11.67;7.30;;;25.30;66.10;;;;;;5045795;28;20227;-77
2021/08/21 10:30:41;;;;;;;8.20;6.20;;;25.30;65.60;;;;;;5047583;28;20423;-78
2021/08/21 10:33:06;;;;;;;10.17;7.10;;;25.40;66.40;;;;;;5049224;28;20572;-77
2021/08/21 10:35:42;;;;;;;9.87;6.40;;;25.40;65.70;;;;;;5045714;28;20967;-77
2021/08/21 10:38:32;;;;;;;20.00;7.97;;;25.50;65.60;;;;;;5047454;28;20188;-76
2021/08/21 10:41:27;;;;;;;8.10;6.30;;;25.70;65.30;;;;;;5042481;28;20474;-76
2021/08/21 10:43:54;;;;;;;9.27;7.10;;;26.00;65.00;;;;;;5042837;28;20421;-78
2021/08/21 10:46:43;;;;;;;9.17;6.33;;;26.40;63.40;;;;;;5040343;28;20489;-76
2021/08/21 10:49:09;;;;;;;11.47;7.60;;;26.90;62.60;;;;;;5049656;28;20457;-77
2021/08/21 10:51:37;;;;;;;12.57;7.00;;;27.40;59.30;;;;;;5047109;28;20450;-78
2021/08/21 10:54:26;;;;;;;14.27;7.70;;;27.80;57.80;;;;;;5042085;28;20198;-77
2021/08/21 10:57:19;;;;;;;11.83;7.80;;;27.80;57.70;;;;;;5043833;28;20449;-76
2021/08/21 10:59:47;;;;;;;11.73;7.43;;;28.10;56.80;;;;;;5046699;28;20473;-76
2021/08/21 11:02:31;;;;;;;11.27;6.97;;;28.40;55.80;;;;;;5063227;28;20453;-76
2021/08/21 11:04:58;;;;;;;9.33;7.10;;;28.70;56.00;;;;;;5069875;28;20445;-77
2021/08/21 11:07:30;;;;;;;9.23;6.70;;;28.80;54.80;;;;;;5062586;28;20430;-76
2021/08/21 11:10:18;;;;;;;10.63;7.50;;;28.90;54.80;;;;;;5058482;28;21234;-77
2021/08/21 11:12:47;;;;;;;10.90;7.37;;;29.00;54.50;;;;;;5044223;28;20453;-76
2021/08/21 11:15:22;;;;;;;14.30;9.90;;;29.30;53.80;;;;;;5054803;28;20903;-76
2021/08/21 11:17:49;;;;;;;10.63;7.70;;;29.50;53.60;;;;;;5051873;28;20422;-75
2021/08/21 11:20:35;;;;;;;10.93;7.00;;;29.60;52.60;;;;;;5049533;28;20459;-78
2021/08/21 11:23:07;;;;;;;11.80;7.37;;;29.80;51.60;;;;;;5045237;28;20427;-76
2021/08/21 11:25:34;;;;;;;11.03;8.10;;;29.40;52.50;;;;;;5039855;28;21003;-77
2021/08/21 11:28:07;;;;;;;10.47;7.60;;;29.20;53.40;;;;;;5043129;28;20480;-76
2021/08/21 11:30:34;;;;;;;10.90;7.90;;;29.30;53.30;;;;;;5038806;28;20517;-76
2021/08/21 11:33:02;;;;;;;12.83;7.70;;;29.50;52.80;;;;;;5048377;28;20435;-75
2021/08/21 11:35:29;;;;;;;10.67;6.90;;;29.10;52.00;;;;;;5044879;28;20435;-76
2021/08/21 11:38:07;;;;;;;11.10;7.70;;;29.20;52.40;;;;;;5047142;28;20435;-76
2021/08/21 11:40:38;;;;;;;8.70;7.03;;;29.10;53.00;;;;;;5036255;28;20462;-77
2021/08/21 11:43:10;;;;;;;9.57;7.40;;;29.20;52.40;;;;;;5045568;28;20439;-77
2021/08/21 11:45:37;;;;;;;9.60;7.00;;;29.40;52.50;;;;;;5054357;28;20419;-76
2021/08/21 11:48:03;;;;;;;9.70;6.67;;;29.70;51.60;;;;;;5050739;28;20558;-75
2021/08/21 11:50:40;;;;;;;8.93;6.90;;;29.90;51.20;;;;;;5043863;28;20438;-76
2021/08/21 11:53:09;;;;;;;10.07;7.17;;;30.00;50.60;;;;;;5050703;28;20418;-76
2021/08/21 11:55:36;;;;;;;9.57;6.97;;;30.20;50.60;;;;;;5053633;28;20423;-75
2021/08/21 11:58:02;;;;;;;8.20;6.57;;;30.50;50.20;;;;;;5054174;28;20521;-76
2021/08/21 12:00:31;;;;;;;11.27;7.40;;;30.60;48.90;;;;;;5053042;28;20474;-75
2021/08/21 12:03:03;;;;;;;8.23;6.67;;;30.40;49.50;;;;;;5053674;28;20419;-76
2021/08/21 12:05:40;;;;;;;7.17;5.80;;;30.40;49.50;;;;;;5048691;28;20419;-77
2021/08/21 12:08:18;;;;;;;9.67;6.30;;;30.40;50.50;;;;;;5051673;28;20434;-75
2021/08/21 12:10:45;;;;;;;9.97;6.73;;;30.20;49.30;;;;;;5051742;28;20767;-75
2021/08/21 12:13:12;;;;;;;8.97;6.17;;;30.40;48.50;;;;;;5053113;28;20430;-76
2021/08/21 12:15:38;;;;;;;9.03;6.77;;;30.30;47.40;;;;;;5051733;28;20424;-77
2021/08/21 12:18:06;;;;;;;7.73;6.07;;;30.30;48.30;;;;;;5051225;28;20423;-76
2021/08/21 12:20:36;;;;;;;8.50;6.27;;;30.60;47.90;;;;;;5044062;28;20463;-76
2021/08/21 12:23:02;;;;;;;10.00;6.33;;;30.60;47.80;;;;;;5045815;28;20473;-76
2021/08/21 12:26:07;;;;;;;7.50;5.60;;;30.60;46.90;;;;;;5047601;28;20446;-76
2021/08/21 12:28:44;;;;;;;8.47;6.27;;;30.40;46.10;;;;;;5066202;28;20462;-77
2021/08/21 12:31:16;;;;;;;9.10;6.00;;;30.30;46.60;;;;;;5068638;28;20966;-75
2021/08/21 12:33:54;;;;;;;7.40;5.70;;;30.60;46.60;;;;;;5065571;28;20418;-75
2021/08/21 12:36:22;;;;;;;8.77;6.27;;;30.70;45.40;;;;;;5060925;28;20923;-77
2021/08/21 12:39:12;;;;;;;8.40;6.63;;;30.70;45.40;;;;;;5068831;28;20536;-75
2021/08/21 12:41:46;;;;;;;8.90;5.97;;;30.60;46.30;;;;;;5068810;28;20466;-77
2021/08/21 12:44:16;;;;;;;8.23;6.27;;;30.60;46.30;;;;;;5062836;28;20512;-76
2021/08/21 12:46:54;;;;;;;7.80;5.80;;;30.30;46.50;;;;;;5064958;28;20439;-76
2021/08/21 12:49:37;;;;;;;8.03;5.80;;;30.20;47.50;;;;;;5059518;28;20457;-77